Time;durP1;ratioP1;P1;durP2;ratioP2;P2;SDS_P1;SDS_P2;PMS_P1;PMS_P2;Temp;Humidity;BMP_temperature;BMP_pressure;BME280_temperature;BME280_humidity;BME280_pressure;Samples;Min_cycle;Max_cycle;Signal;HPM_P1;HPM_P2
2022/01/11 00:02:16;;;;;;;10.93;7.57;;;;;;;;;;4935642;29;20186;-75
2022/01/11 00:04:41;;;;;;;12.47;8.57;;;;;;;;;;4936185;29;20174;-75
2022/01/11 00:07:11;;;;;;;12.80;7.73;;;;;;;;;;4920439;29;20291;-76
2022/01/11 00:09:41;;;;;;;12.07;7.67;;;;;;;;;;4919534;29;20197;-76
2022/01/11 00:12:08;;;;;;;16.93;8.27;;;;;;;;;;4918304;29;20182;-76
2022/01/11 00:14:34;;;;;;;14.00;8.33;;;;;;;;;;4944720;29;20187;-76
2022/01/11 00:17:00;;;;;;;13.57;7.73;;;;;;;;;;4927730;29;20178;-76
2022/01/11 00:19:25;;;;;;;15.10;8.50;;;;;;;;;;4920199;29;20185;-76
2022/01/11 00:21:51;;;;;;;14.83;8.53;;;;;;;;;;4918186;29;20230;-76
2022/01/11 00:24:36;;;;;;;15.87;10.03;;;;;;;;;;4918311;29;20213;-75
2022/01/11 00:27:01;;;;;;;18.20;8.80;;;;;;;;;;4913337;29;20170;-75
2022/01/11 00:29:27;;;;;;;16.27;8.23;;;;;;;;;;4939499;29;20182;-76
2022/01/11 00:31:53;;;;;;;22.13;10.93;;;;;;;;;;4918102;29;20182;-76
2022/01/11 00:34:20;;;;;;;21.00;11.70;;;;;;;;;;4935467;29;20205;-76
2022/01/11 00:36:46;;;;;;;20.43;9.37;;;;;;;;;;4917258;29;20245;-76
2022/01/11 00:39:14;;;;;;;13.57;8.63;;;;;;;;;;4917817;29;20190;-75
2022/01/11 00:41:40;;;;;;;18.03;10.47;;;;;;;;;;4934172;29;20189;-76
2022/01/11 00:44:06;;;;;;;20.70;10.80;;;;;;;;;;4918124;29;20250;-76
2022/01/11 00:46:32;;;;;;;17.87;10.23;;;;;;;;;;4917768;29;20503;-75
2022/01/11 00:48:57;;;;;;;18.30;9.00;;;;;;;;;;4921572;29;20182;-76
2022/01/11 00:51:22;;;;;;;24.17;10.20;;;;;;;;;;4933382;29;20185;-76
2022/01/11 00:53:48;;;;;;;19.73;9.50;;;;;;;;;;4918150;29;20269;-76
2022/01/11 00:56:13;;;;;;;18.57;9.87;;;;;;;;;;4932856;29;20193;-76
2022/01/11 00:58:38;;;;;;;22.03;9.33;;;;;;;;;;4917852;29;20179;-76
2022/01/11 01:01:03;;;;;;;20.60;9.80;;;;;;;;;;4917862;29;20212;-75
2022/01/11 01:03:29;;;;;;;19.53;10.43;;;;;;;;;;4917930;29;20197;-75
2022/01/11 01:05:54;;;;;;;18.73;10.37;;;;;;;;;;4916826;29;20204;-76
2022/01/11 01:08:20;;;;;;;18.40;10.13;;;;;;;;;;4933291;29;20245;-76
2022/01/11 01:10:48;;;;;;;21.23;10.20;;;;;;;;;;4916680;29;20186;-75
2022/01/11 01:13:18;;;;;;;21.20;10.43;;;;;;;;;;4916099;29;20186;-76
2022/01/11 01:15:47;;;;;;;13.40;8.67;;;;;;;;;;4920034;29;20197;-75
2022/01/11 01:18:15;;;;;;;16.30;10.07;;;;;;;;;;4918800;29;20183;-75
2022/01/11 01:20:40;;;;;;;22.10;10.70;;;;;;;;;;4915488;29;20210;-75
2022/01/11 01:23:05;;;;;;;19.93;10.43;;;;;;;;;;4916737;29;20225;-76
2022/01/11 01:25:31;;;;;;;17.43;9.33;;;;;;;;;;4914773;29;20187;-76
2022/01/11 01:27:56;;;;;;;19.00;9.93;;;;;;;;;;4921594;29;20189;-76
2022/01/11 01:30:21;;;;;;;15.23;9.30;;;;;;;;;;4919182;29;20273;-76
2022/01/11 01:32:48;;;;;;;16.07;10.37;;;;;;;;;;4937548;29;20180;-76
2022/01/11 01:35:14;;;;;;;23.50;11.10;;;;;;;;;;4917543;29;20188;-75
2022/01/11 01:37:39;;;;;;;22.03;11.23;;;;;;;;;;4916174;29;20182;-75
2022/01/11 01:40:05;;;;;;;21.27;10.20;;;;;;;;;;4916249;29;20347;-76
2022/01/11 01:42:31;;;;;;;15.73;9.23;;;;;;;;;;4918400;29;20350;-75
2022/01/11 01:45:01;;;;;;;16.00;9.60;;;;;;;;;;4916460;29;20199;-76
2022/01/11 01:47:26;;;;;;;18.60;10.27;;;;;;;;;;4913598;29;20182;-76
2022/01/11 01:49:51;;;;;;;14.37;8.83;;;;;;;;;;4917320;29;20180;-75
2022/01/11 01:52:17;;;;;;;16.27;9.30;;;;;;;;;;4918215;29;20190;-75
2022/01/11 01:54:42;;;;;;;16.07;8.97;;;;;;;;;;4916559;29;20185;-76
2022/01/11 01:57:08;;;;;;;17.90;11.40;;;;;;;;;;4916394;29;20298;-75
2022/01/11 01:59:33;;;;;;;17.97;11.17;;;;;;;;;;4916140;29;20182;-76
2022/01/11 02:01:59;;;;;;;19.73;12.30;;;;;;;;;;4917347;29;20209;-75
2022/01/11 02:04:24;;;;;;;18.53;9.90;;;;;;;;;;4933097;29;20215;-75
2022/01/11 02:06:49;;;;;;;18.57;9.73;;;;;;;;;;4920901;29;20211;-75
2022/01/11 02:09:15;;;;;;;12.30;7.50;;;;;;;;;;4915845;29;20170;-75
2022/01/11 02:11:40;;;;;;;12.67;6.83;;;;;;;;;;4934025;29;20217;-75
2022/01/11 02:14:05;;;;;;;11.23;6.67;;;;;;;;;;4916577;29;20178;-75
2022/01/11 02:16:31;;;;;;;6.03;3.93;;;;;;;;;;4913741;29;20182;-76
2022/01/11 02:18:56;;;;;;;7.17;5.10;;;;;;;;;;4916072;29;20178;-76
2022/01/11 02:21:22;;;;;;;7.77;4.43;;;;;;;;;;4919095;29;20262;-75
2022/01/11 02:23:49;;;;;;;6.90;4.57;;;;;;;;;;4913608;29;20257;-76
2022/01/11 02:26:15;;;;;;;6.43;4.63;;;;;;;;;;4914571;29;20182;-76
2022/01/11 02:28:40;;;;;;;9.50;4.93;;;;;;;;;;4916676;29;20178;-76
2022/01/11 02:31:07;;;;;;;7.17;4.53;;;;;;;;;;4915665;29;20181;-76
2022/01/11 02:33:38;;;;;;;8.87;4.87;;;;;;;;;;4922215;29;20206;-76
2022/01/11 02:36:05;;;;;;;6.50;3.77;;;;;;;;;;4912333;29;20191;-75
2022/01/11 02:38:30;;;;;;;9.07;5.07;;;;;;;;;;4925991;29;20185;-76
2022/01/11 02:40:55;;;;;;;7.60;5.10;;;;;;;;;;4915669;29;20209;-76
2022/01/11 02:43:21;;;;;;;8.10;4.77;;;;;;;;;;4915032;29;20180;-76
2022/01/11 02:45:46;;;;;;;7.67;5.03;;;;;;;;;;4916091;29;20178;-75
2022/01/11 02:48:11;;;;;;;7.63;5.13;;;;;;;;;;4914627;29;20185;-76
2022/01/11 02:50:36;;;;;;;8.43;5.70;;;;;;;;;;4915351;29;20190;-75
2022/01/11 02:53:01;;;;;;;7.20;4.93;;;;;;;;;;4914953;29;20193;-76
2022/01/11 02:55:27;;;;;;;9.17;5.90;;;;;;;;;;4920854;29;20189;-75
2022/01/11 02:57:53;;;;;;;10.50;5.90;;;;;;;;;;4932749;29;20404;-76
2022/01/11 03:00:20;;;;;;;10.57;5.67;;;;;;;;;;4915777;29;20229;-75
2022/01/11 03:02:46;;;;;;;13.33;5.90;;;;;;;;;;4914993;29;20185;-76
2022/01/11 03:05:11;;;;;;;10.07;6.53;;;;;;;;;;4915475;29;20170;-76
2022/01/11 03:07:39;;;;;;;13.67;6.20;;;;;;;;;;4913084;29;20194;-76
2022/01/11 03:10:12;;;;;;;12.03;7.00;;;;;;;;;;4929579;29;20227;-76
2022/01/11 03:12:40;;;;;;;10.23;6.67;;;;;;;;;;4930563;29;20189;-76
2022/01/11 03:15:05;;;;;;;11.23;6.73;;;;;;;;;;4931490;29;20186;-76
2022/01/11 03:17:30;;;;;;;12.70;7.30;;;;;;;;;;4916209;29;20193;-76
2022/01/11 03:19:55;;;;;;;9.27;6.80;;;;;;;;;;4912849;29;20189;-76
2022/01/11 03:22:21;;;;;;;12.23;7.53;;;;;;;;;;4915027;29;20551;-75
2022/01/11 03:24:46;;;;;;;12.83;8.00;;;;;;;;;;4930741;29;20209;-76
2022/01/11 03:27:11;;;;;;;19.00;8.60;;;;;;;;;;4933927;29;20189;-75
2022/01/11 03:29:38;;;;;;;10.20;7.27;;;;;;;;;;4935603;29;20205;-76
2022/01/11 03:32:06;;;;;;;17.87;9.43;;;;;;;;;;4932300;29;20178;-76
2022/01/11 03:34:32;;;;;;;15.47;8.07;;;;;;;;;;4914729;29;20205;-76
2022/01/11 03:36:57;;;;;;;17.67;7.67;;;;;;;;;;4914221;29;20178;-76
2022/01/11 03:39:23;;;;;;;13.33;8.20;;;;;;;;;;4930895;29;20313;-76
2022/01/11 03:41:49;;;;;;;11.70;7.20;;;;;;;;;;4915003;29;20210;-75
2022/01/11 03:44:14;;;;;;;13.43;8.20;;;;;;;;;;4919694;29;20174;-76
2022/01/11 03:46:39;;;;;;;15.53;9.07;;;;;;;;;;4929566;29;20186;-76
2022/01/11 03:49:04;;;;;;;15.83;8.60;;;;;;;;;;4918891;29;20182;-75
2022/01/11 03:51:32;;;;;;;14.40;7.37;;;;;;;;;;4917223;29;20185;-75
2022/01/11 03:54:07;;;;;;;15.43;7.73;;;;;;;;;;4922702;29;20184;-76
2022/01/11 03:56:33;;;;;;;13.87;8.57;;;;;;;;;;4914787;29;20209;-75
2022/01/11 03:59:06;;;;;;;14.40;7.37;;;;;;;;;;4921925;29;20192;-76
2022/01/11 04:01:31;;;;;;;14.90;9.00;;;;;;;;;;4934697;29;20212;-76
2022/01/11 04:03:56;;;;;;;16.90;8.03;;;;;;;;;;4917596;29;20182;-76
2022/01/11 04:06:21;;;;;;;13.17;8.50;;;;;;;;;;4934533;29;20178;-75
2022/01/11 04:08:46;;;;;;;11.67;7.63;;;;;;;;;;4918645;29;20221;-75
2022/01/11 04:11:12;;;;;;;13.40;7.93;;;;;;;;;;4935368;29;20190;-76
2022/01/11 04:13:38;;;;;;;17.93;9.20;;;;;;;;;;4935322;29;20213;-76
2022/01/11 04:16:03;;;;;;;15.73;9.40;;;;;;;;;;4928437;29;20187;-76
2022/01/11 04:18:28;;;;;;;15.87;9.30;;;;;;;;;;4921266;29;20201;-75
2022/01/11 04:20:54;;;;;;;15.80;10.40;;;;;;;;;;4929286;29;20242;-75
2022/01/11 04:23:19;;;;;;;16.90;9.00;;;;;;;;;;4910741;29;20309;-76
2022/01/11 04:25:44;;;;;;;16.27;10.00;;;;;;;;;;4915791;29;20241;-75
2022/01/11 04:28:09;;;;;;;16.40;9.37;;;;;;;;;;4909400;29;20296;-76
2022/01/11 04:30:35;;;;;;;17.63;9.87;;;;;;;;;;4915933;29;20193;-76
2022/01/11 04:33:00;;;;;;;19.63;10.27;;;;;;;;;;4914478;29;20210;-75
2022/01/11 04:35:26;;;;;;;17.33;10.77;;;;;;;;;;4915329;29;20299;-75
2022/01/11 04:37:51;;;;;;;15.47;9.67;;;;;;;;;;4920938;29;20189;-75
2022/01/11 04:40:16;;;;;;;18.00;9.60;;;;;;;;;;4938989;29;20194;-76
2022/01/11 04:42:42;;;;;;;14.20;9.23;;;;;;;;;;4913724;29;20189;-75
2022/01/11 04:45:10;;;;;;;28.37;11.27;;;;;;;;;;4917075;29;20178;-76
2022/01/11 04:47:35;;;;;;;17.63;9.93;;;;;;;;;;4910930;29;20186;-76
2022/01/11 04:50:00;;;;;;;19.47;10.27;;;;;;;;;;4932843;29;20181;-76
2022/01/11 04:52:25;;;;;;;17.07;9.90;;;;;;;;;;4910092;29;20182;-76
2022/01/11 04:54:50;;;;;;;18.17;10.67;;;;;;;;;;4915924;29;20217;-76
2022/01/11 04:57:16;;;;;;;19.20;9.67;;;;;;;;;;4917359;29;20186;-76
2022/01/11 04:59:41;;;;;;;16.67;9.57;;;;;;;;;;4913182;29;20253;-76
2022/01/11 05:02:06;;;;;;;20.30;9.77;;;;;;;;;;4929216;29;20221;-76
2022/01/11 05:04:31;;;;;;;20.67;10.27;;;;;;;;;;4932060;29;20241;-75
2022/01/11 05:06:57;;;;;;;17.40;10.27;;;;;;;;;;4915266;29;20207;-75
2022/01/11 05:09:22;;;;;;;20.77;10.87;;;;;;;;;;4918704;29;20183;-75
2022/01/11 05:11:47;;;;;;;17.77;9.97;;;;;;;;;;4921629;29;20301;-76
2022/01/11 05:14:12;;;;;;;17.50;10.13;;;;;;;;;;4920834;29;20269;-75
2022/01/11 05:16:38;;;;;;;20.00;11.83;;;;;;;;;;4943039;29;20214;-76
2022/01/11 05:19:06;;;;;;;20.13;11.67;;;;;;;;;;4924838;29;20192;-76
2022/01/11 05:21:31;;;;;;;19.33;10.67;;;;;;;;;;4916725;29;20225;-75
2022/01/11 05:23:57;;;;;;;20.53;12.27;;;;;;;;;;4931423;29;20185;-76
2022/01/11 05:26:22;;;;;;;20.20;11.63;;;;;;;;;;4921984;29;20183;-75
2022/01/11 05:28:50;;;;;;;21.53;11.60;;;;;;;;;;4940443;29;20177;-75
2022/01/11 05:31:15;;;;;;;30.83;24.50;;;;;;;;;;4932272;29;20189;-76
2022/01/11 05:33:40;;;;;;;19.67;12.57;;;;;;;;;;4912764;29;20202;-76
2022/01/11 05:36:05;;;;;;;19.67;10.10;;;;;;;;;;4915974;29;20194;-76
2022/01/11 05:38:30;;;;;;;19.00;11.87;;;;;;;;;;4922356;29;20185;-76
2022/01/11 05:40:56;;;;;;;18.80;10.37;;;;;;;;;;4931441;29;20209;-76
2022/01/11 05:43:21;;;;;;;17.27;10.33;;;;;;;;;;4932954;29;20170;-75
2022/01/11 05:45:47;;;;;;;15.87;9.53;;;;;;;;;;4933905;29;20189;-76
2022/01/11 05:48:12;;;;;;;18.90;10.00;;;;;;;;;;4920296;29;20193;-76
2022/01/11 05:50:38;;;;;;;15.10;8.67;;;;;;;;;;4916687;29;20188;-76
2022/01/11 05:53:03;;;;;;;11.97;7.27;;;;;;;;;;4933049;29;20178;-76
2022/01/11 05:55:29;;;;;;;13.97;8.17;;;;;;;;;;4934295;29;20174;-76
2022/01/11 05:57:54;;;;;;;11.67;7.67;;;;;;;;;;4921078;29;20191;-75
2022/01/11 06:00:20;;;;;;;14.63;8.30;;;;;;;;;;4916521;29;20201;-76
2022/01/11 06:02:48;;;;;;;13.97;7.47;;;;;;;;;;4931557;29;20284;-75
2022/01/11 06:05:13;;;;;;;13.70;7.67;;;;;;;;;;4915270;29;20265;-75
2022/01/11 06:07:39;;;;;;;14.17;8.67;;;;;;;;;;4918543;29;20273;-76
2022/01/11 06:10:05;;;;;;;12.37;6.83;;;;;;;;;;4912024;29;20234;-79
2022/01/11 06:12:31;;;;;;;16.97;8.90;;;;;;;;;;4915833;29;20278;-77
2022/01/11 06:14:56;;;;;;;17.13;9.10;;;;;;;;;;4913285;29;20250;-76
2022/01/11 06:17:21;;;;;;;16.60;9.57;;;;;;;;;;4927859;29;20188;-77
2022/01/11 06:19:46;;;;;;;18.40;9.47;;;;;;;;;;4918527;29;20213;-77
2022/01/11 06:22:12;;;;;;;17.70;10.17;;;;;;;;;;4914114;29;20323;-77
2022/01/11 06:24:37;;;;;;;19.23;9.47;;;;;;;;;;4911079;29;20242;-77
2022/01/11 06:27:02;;;;;;;19.23;10.77;;;;;;;;;;4913844;29;20230;-77
2022/01/11 06:29:27;;;;;;;17.77;10.10;;;;;;;;;;4912035;29;20188;-77
2022/01/11 06:31:53;;;;;;;19.80;11.13;;;;;;;;;;4912918;29;20461;-77
2022/01/11 06:34:18;;;;;;;18.30;10.60;;;;;;;;;;4912370;29;20355;-77
2022/01/11 06:36:43;;;;;;;21.90;10.70;;;;;;;;;;4912089;29;20257;-77
2022/01/11 06:39:08;;;;;;;17.53;10.10;;;;;;;;;;4915928;29;20194;-77
2022/01/11 06:41:35;;;;;;;17.80;10.57;;;;;;;;;;4915383;29;20577;-77
2022/01/11 06:44:01;;;;;;;20.43;10.93;;;;;;;;;;4911665;29;20230;-77
2022/01/11 06:46:28;;;;;;;18.80;12.50;;;;;;;;;;4912427;29;20214;-77
2022/01/11 06:48:54;;;;;;;23.97;13.47;;;;;;;;;;4913415;29;20190;-77
2022/01/11 06:51:19;;;;;;;19.77;11.47;;;;;;;;;;4913701;29;20316;-77
2022/01/11 06:53:45;;;;;;;18.40;12.43;;;;;;;;;;4912350;29;20182;-77
2022/01/11 06:56:10;;;;;;;18.43;12.40;;;;;;;;;;4914333;29;20284;-77
2022/01/11 06:58:35;;;;;;;21.43;12.50;;;;;;;;;;4913810;29;20222;-77
2022/01/11 07:01:00;;;;;;;16.23;9.70;;;;;;;;;;4912827;29;20278;-77
2022/01/11 07:03:27;;;;;;;22.20;11.20;;;;;;;;;;4912842;29;20190;-77
2022/01/11 07:05:52;;;;;;;20.47;12.60;;;;;;;;;;4913209;29;20181;-77
2022/01/11 07:08:18;;;;;;;18.73;11.30;;;;;;;;;;4912760;29;20179;-77
2022/01/11 07:10:43;;;;;;;18.77;11.33;;;;;;;;;;4907092;29;20214;-77
2022/01/11 07:13:08;;;;;;;21.17;11.93;;;;;;;;;;4909515;29;20332;-77
2022/01/11 07:15:33;;;;;;;20.90;11.07;;;;;;;;;;4912322;29;20217;-77
2022/01/11 07:17:59;;;;;;;20.30;11.67;;;;;;;;;;4913899;29;20183;-77
2022/01/11 07:20:24;;;;;;;20.13;11.57;;;;;;;;;;4912493;29;20211;-77
2022/01/11 07:22:49;;;;;;;21.60;11.70;;;;;;;;;;4924271;29;20222;-77
2022/01/11 07:25:15;;;;;;;19.67;12.17;;;;;;;;;;4932192;28;20213;-77
2022/01/11 07:27:40;;;;;;;17.43;10.80;;;;;;;;;;4915936;29;20185;-77
2022/01/11 07:30:06;;;;;;;26.77;11.77;;;;;;;;;;4922805;29;20201;-77
2022/01/11 07:32:33;;;;;;;18.83;11.67;;;;;;;;;;4919090;29;20174;-77
2022/01/11 07:34:58;;;;;;;18.60;10.50;;;;;;;;;;4935225;29;20278;-77
2022/01/11 07:37:24;;;;;;;22.23;11.57;;;;;;;;;;4925175;29;20268;-77
2022/01/11 07:39:49;;;;;;;24.17;13.00;;;;;;;;;;4915861;29;20181;-77
2022/01/11 07:42:14;;;;;;;21.43;11.77;;;;;;;;;;4939044;29;20219;-77
2022/01/11 07:44:39;;;;;;;15.97;9.47;;;;;;;;;;4920690;29;20361;-77
2022/01/11 07:47:05;;;;;;;22.90;11.97;;;;;;;;;;4922324;29;20182;-77
2022/01/11 07:49:30;;;;;;;20.80;11.83;;;;;;;;;;4921155;29;20205;-77
2022/01/11 07:51:55;;;;;;;17.67;11.83;;;;;;;;;;4921453;29;20182;-77
2022/01/11 07:54:21;;;;;;;23.27;12.23;;;;;;;;;;4924020;29;20186;-77
2022/01/11 07:56:46;;;;;;;20.10;10.97;;;;;;;;;;4920867;29;20194;-77
2022/01/11 07:59:12;;;;;;;17.10;11.93;;;;;;;;;;4921359;29;20186;-77
2022/01/11 08:01:38;;;;;;;20.97;12.77;;;;;;;;;;4930319;29;20217;-77
2022/01/11 08:04:03;;;;;;;20.93;12.67;;;;;;;;;;4913575;29;20178;-77
2022/01/11 08:06:28;;;;;;;18.47;11.57;;;;;;;;;;4916422;29;20221;-77
2022/01/11 08:08:53;;;;;;;21.97;13.13;;;;;;;;;;4922041;29;20174;-77
2022/01/11 08:11:19;;;;;;;22.63;10.93;;;;;;;;;;4917437;29;20174;-78
2022/01/11 08:13:44;;;;;;;19.23;11.33;;;;;;;;;;4923057;29;20201;-77
2022/01/11 08:16:09;;;;;;;21.00;11.60;;;;;;;;;;4923569;29;20174;-77
2022/01/11 08:18:34;;;;;;;17.73;11.97;;;;;;;;;;4915055;29;20269;-77
2022/01/11 08:21:00;;;;;;;23.33;12.43;;;;;;;;;;4917239;29;20189;-77
2022/01/11 08:23:25;;;;;;;22.87;13.40;;;;;;;;;;4914405;29;20234;-77
2022/01/11 08:25:50;;;;;;;24.77;13.57;;;;;;;;;;4915023;29;20171;-77
2022/01/11 08:28:15;;;;;;;20.73;11.97;;;;;;;;;;4916321;29;20273;-77
2022/01/11 08:30:40;;;;;;;24.70;13.67;;;;;;;;;;4918627;29;20846;-77
2022/01/11 08:33:06;;;;;;;21.60;11.73;;;;;;;;;;4915394;29;20250;-77
2022/01/11 08:35:32;;;;;;;18.37;11.70;;;;;;;;;;4916860;29;20186;-77
2022/01/11 08:37:58;;;;;;;25.07;12.70;;;;;;;;;;4914753;29;20179;-77
2022/01/11 08:40:23;;;;;;;25.40;13.37;;;;;;;;;;4908237;29;20309;-77
2022/01/11 08:42:48;;;;;;;20.87;11.50;;;;;;;;;;4914314;29;20175;-77
2022/01/11 08:45:14;;;;;;;20.20;10.27;;;;;;;;;;4911899;29;20174;-77
2022/01/11 08:47:39;;;;;;;21.43;11.73;;;;;;;;;;4918780;29;20182;-77
2022/01/11 08:50:05;;;;;;;21.97;12.80;;;;;;;;;;4915620;29;20222;-77
2022/01/11 08:52:30;;;;;;;22.30;11.73;;;;;;;;;;4914333;29;20190;-77
2022/01/11 08:54:56;;;;;;;23.53;12.33;;;;;;;;;;4912085;29;20179;-77
2022/01/11 08:57:21;;;;;;;24.20;16.27;;;;;;;;;;4909297;29;20187;-77
2022/01/11 08:59:46;;;;;;;23.47;12.17;;;;;;;;;;4914026;29;20488;-77
2022/01/11 09:02:13;;;;;;;20.03;11.33;;;;;;;;;;4915836;29;20221;-77
2022/01/11 09:04:38;;;;;;;18.67;11.73;;;;;;;;;;4915229;29;20186;-77
2022/01/11 09:07:04;;;;;;;19.20;12.37;;;;;;;;;;4913439;29;20183;-77
2022/01/11 09:09:31;;;;;;;20.60;12.47;;;;;;;;;;4919268;29;20185;-77
2022/01/11 09:11:57;;;;;;;17.17;11.03;;;;;;;;;;4915267;29;20189;-77
2022/01/11 09:14:22;;;;;;;20.70;10.97;;;;;;;;;;4912629;29;20219;-77
2022/01/11 09:16:48;;;;;;;21.27;11.53;;;;;;;;;;4921855;29;20194;-77
2022/01/11 09:19:14;;;;;;;19.73;12.33;;;;;;;;;;4921458;29;20190;-77
2022/01/11 09:21:39;;;;;;;21.20;12.23;;;;;;;;;;4914244;29;20232;-77
2022/01/11 09:24:05;;;;;;;23.73;13.30;;;;;;;;;;4916595;29;20210;-77
2022/01/11 09:26:30;;;;;;;26.53;13.40;;;;;;;;;;4918649;29;20408;-77
2022/01/11 09:28:56;;;;;;;20.70;13.27;;;;;;;;;;4911972;29;20195;-77
2022/01/11 09:31:21;;;;;;;23.33;11.47;;;;;;;;;;4914976;29;20215;-77
2022/01/11 09:33:46;;;;;;;25.90;14.97;;;;;;;;;;4916155;29;20206;-77
2022/01/11 09:36:12;;;;;;;26.43;14.03;;;;;;;;;;4923432;29;20193;-77
2022/01/11 09:38:37;;;;;;;26.03;14.10;;;;;;;;;;4915598;29;20201;-77
2022/01/11 09:41:02;;;;;;;25.10;14.40;;;;;;;;;;4916657;29;20210;-77
2022/01/11 09:43:28;;;;;;;21.47;13.17;;;;;;;;;;4921777;29;20182;-77
2022/01/11 09:45:54;;;;;;;22.97;13.93;;;;;;;;;;4912314;29;20183;-77
2022/01/11 09:48:24;;;;;;;21.57;12.53;;;;;;;;;;4928056;29;20171;-77
2022/01/11 09:50:50;;;;;;;25.87;15.60;;;;;;;;;;4914034;29;20238;-77
2022/01/11 09:53:15;;;;;;;24.60;13.83;;;;;;;;;;4914172;29;20190;-77
2022/01/11 09:55:41;;;;;;;26.67;14.57;;;;;;;;;;4912150;29;20273;-77
2022/01/11 09:58:07;;;;;;;27.63;14.03;;;;;;;;;;4914142;29;20230;-77
2022/01/11 10:00:32;;;;;;;25.70;13.27;;;;;;;;;;4907296;29;20206;-77
2022/01/11 10:02:57;;;;;;;27.37;14.10;;;;;;;;;;4913264;29;20211;-77
2022/01/11 10:05:23;;;;;;;24.00;14.60;;;;;;;;;;4911800;29;20202;-78
2022/01/11 10:07:49;;;;;;;23.27;13.47;;;;;;;;;;4910823;29;20212;-77
2022/01/11 10:10:20;;;;;;;21.97;12.27;;;;;;;;;;4928558;29;20178;-77
2022/01/11 10:12:50;;;;;;;26.47;14.37;;;;;;;;;;4914389;29;20185;-77
2022/01/11 10:15:24;;;;;;;28.33;14.63;;;;;;;;;;4912945;29;20175;-77
2022/01/11 10:17:49;;;;;;;25.67;14.00;;;;;;;;;;4921993;29;20175;-77
2022/01/11 10:20:21;;;;;;;25.97;14.37;;;;;;;;;;4913458;29;20193;-77
2022/01/11 10:22:51;;;;;;;20.30;13.37;;;;;;;;;;4907851;29;20234;-77
2022/01/11 10:25:16;;;;;;;25.17;12.40;;;;;;;;;;4912750;29;20262;-77
2022/01/11 10:27:42;;;;;;;28.83;13.90;;;;;;;;;;4913482;29;20209;-77
2022/01/11 10:30:10;;;;;;;20.87;13.20;;;;;;;;;;4918156;28;20209;-77
2022/01/11 10:32:45;;;;;;;25.17;12.30;;;;;;;;;;4912861;29;20175;-77
2022/01/11 10:35:12;;;;;;;27.60;14.80;;;;;;;;;;4912688;29;20178;-77
2022/01/11 10:37:38;;;;;;;23.60;14.17;;;;;;;;;;4913307;29;20249;-78
2022/01/11 10:40:12;;;;;;;22.63;13.63;;;;;;;;;;4913761;29;20189;-77
2022/01/11 10:42:41;;;;;;;20.57;13.13;;;;;;;;;;4907008;29;20182;-77
2022/01/11 10:45:07;;;;;;;22.40;13.30;;;;;;;;;;4916328;29;20234;-77
2022/01/11 10:47:34;;;;;;;23.67;12.47;;;;;;;;;;4914971;29;20187;-77
2022/01/11 10:50:01;;;;;;;19.90;10.93;;;;;;;;;;4915012;29;20182;-77
2022/01/11 10:52:28;;;;;;;20.83;11.57;;;;;;;;;;4916864;29;20194;-77
2022/01/11 10:54:54;;;;;;;19.23;11.90;;;;;;;;;;4913404;29;20186;-77
2022/01/11 10:57:21;;;;;;;18.40;11.87;;;;;;;;;;4913334;29;20242;-77
2022/01/11 11:00:08;;;;;;;12.97;8.73;;;;;;;;;;4912320;29;20186;-77
2022/01/11 11:02:33;;;;;;;20.47;12.23;;;;;;;;;;4911788;29;20187;-77
2022/01/11 11:04:59;;;;;;;20.57;12.17;;;;;;;;;;4913892;29;20190;-77
2022/01/11 11:07:27;;;;;;;24.30;12.53;;;;;;;;;;4912292;29;20305;-77
2022/01/11 11:09:53;;;;;;;18.83;11.90;;;;;;;;;;4914523;29;20230;-77
2022/01/11 11:12:23;;;;;;;19.53;12.03;;;;;;;;;;4910445;29;20190;-77
2022/01/11 11:14:49;;;;;;;17.73;10.37;;;;;;;;;;4916692;29;20183;-77
2022/01/11 11:17:31;;;;;;;18.60;10.93;;;;;;;;;;4915253;29;20195;-77
2022/01/11 11:20:00;;;;;;;16.63;10.37;;;;;;;;;;4912679;29;20191;-77
2022/01/11 11:22:27;;;;;;;20.07;12.57;;;;;;;;;;4915566;29;20245;-78
2022/01/11 11:24:53;;;;;;;18.87;10.03;;;;;;;;;;4915614;29;20262;-78
2022/01/11 11:27:20;;;;;;;17.20;9.10;;;;;;;;;;4916854;29;20194;-77
2022/01/11 11:29:46;;;;;;;14.10;9.03;;;;;;;;;;4920152;29;20212;-77
2022/01/11 11:32:11;;;;;;;15.30;10.70;;;;;;;;;;4916085;29;20228;-77
2022/01/11 11:34:36;;;;;;;14.03;9.17;;;;;;;;;;4915748;29;20215;-77
2022/01/11 11:37:04;;;;;;;15.70;9.00;;;;;;;;;;4916294;29;20171;-77
2022/01/11 11:39:30;;;;;;;14.30;9.20;;;;;;;;;;4915795;29;20178;-77
2022/01/11 11:41:56;;;;;;;16.90;9.13;;;;;;;;;;4915804;29;20221;-77
2022/01/11 11:44:21;;;;;;;12.57;7.30;;;;;;;;;;4911389;29;20174;-77
2022/01/11 11:47:01;;;;;;;17.85;9.35;;;;;;;;;;4914197;29;20194;-78
2022/01/11 11:49:46;;;;;;;5.03;4.37;;;;;;;;;;4913322;29;20191;-77
2022/01/11 11:52:17;;;;;;;9.17;6.17;;;;;;;;;;4918173;29;20206;-78
2022/01/11 11:54:47;;;;;;;10.00;6.30;;;;;;;;;;4916206;29;20186;-77
2022/01/11 11:57:12;;;;;;;12.57;7.77;;;;;;;;;;4913056;29;20233;-77
2022/01/11 11:59:38;;;;;;;11.33;7.10;;;;;;;;;;4912642;29;20214;-77
2022/01/11 12:02:03;;;;;;;11.20;7.20;;;;;;;;;;4920187;29;20194;-77
2022/01/11 12:04:32;;;;;;;11.93;8.27;;;;;;;;;;4918825;29;20182;-77
2022/01/11 12:07:00;;;;;;;12.73;7.53;;;;;;;;;;4915071;29;20207;-77
2022/01/11 12:09:31;;;;;;;9.63;7.07;;;;;;;;;;4922111;29;20185;-78
2022/01/11 12:11:59;;;;;;;13.90;7.30;;;;;;;;;;4918140;29;20242;-77
2022/01/11 12:14:27;;;;;;;9.93;5.40;;;;;;;;;;4915480;29;20186;-77
2022/01/11 12:16:53;;;;;;;7.80;4.80;;;;;;;;;;4914298;29;20189;-77
2022/01/11 12:19:37;;;;;;;13.80;9.07;;;;;;;;;;4911417;29;20180;-77
2022/01/11 12:22:05;;;;;;;11.17;8.20;;;;;;;;;;4915365;29;20234;-78
2022/01/11 12:24:38;;;;;;;16.83;8.47;;;;;;;;;;4910302;29;20183;-77
2022/01/11 12:27:04;;;;;;;8.60;6.63;;;;;;;;;;4917829;29;20187;-78
2022/01/11 12:29:29;;;;;;;11.53;7.13;;;;;;;;;;4921263;29;20282;-77
2022/01/11 12:31:57;;;;;;;11.67;6.63;;;;;;;;;;4912604;29;20209;-78
2022/01/11 12:34:41;;;;;;;12.50;5.70;;;;;;;;;;4915546;29;20210;-77
2022/01/11 12:37:06;;;;;;;10.67;6.47;;;;;;;;;;4913622;29;20179;-77
2022/01/11 12:39:32;;;;;;;11.97;5.93;;;;;;;;;;4908757;29;20186;-77
2022/01/11 12:41:58;;;;;;;6.13;5.20;;;;;;;;;;4916056;29;20258;-77
2022/01/11 12:45:35;;;;;;;7.03;5.33;;;;;;;;;;4914494;29;20179;-78
2022/01/11 12:47:22;;;;;;;8.87;5.03;;;;;;;;;;4915553;29;20206;-77
2022/01/11 12:50:04;;;;;;;6.80;4.43;;;;;;;;;;4915594;29;20174;-78
2022/01/11 12:52:29;;;;;;;6.20;4.17;;;;;;;;;;4914890;29;20261;-77
2022/01/11 12:54:57;;;;;;;4.50;3.03;;;;;;;;;;4915448;29;20178;-77
2022/01/11 12:57:24;;;;;;;6.47;4.20;;;;;;;;;;4913715;29;20254;-77
2022/01/11 12:59:51;;;;;;;7.27;4.07;;;;;;;;;;4915391;29;20246;-78
2022/01/11 13:02:23;;;;;;;6.47;4.57;;;;;;;;;;4915742;29;20243;-77
2022/01/11 13:05:02;;;;;;;6.83;4.90;;;;;;;;;;4916287;29;20179;-78
2022/01/11 13:07:34;;;;;;;7.30;4.50;;;;;;;;;;4917203;29;20182;-77
2022/01/11 13:10:20;;;;;;;6.67;4.80;;;;;;;;;;4915537;29;20214;-78
2022/01/11 13:12:49;;;;;;;6.60;4.73;;;;;;;;;;4929845;29;20248;-78
2022/01/11 13:15:33;;;;;;;7.77;5.27;;;;;;;;;;4913073;29;20214;-78
2022/01/11 13:18:04;;;;;;;10.70;6.70;;;;;;;;;;4914137;29;20191;-78
2022/01/11 13:20:30;;;;;;;13.63;8.93;;;;;;;;;;4913350;29;20236;-78
2022/01/11 13:23:13;;;;;;;12.93;8.90;;;;;;;;;;4915420;29;20226;-78
2022/01/11 13:25:41;;;;;;;10.87;7.87;;;;;;;;;;4928283;29;20218;-77
2022/01/11 13:28:07;;;;;;;11.90;7.20;;;;;;;;;;4917401;29;20175;-77
2022/01/11 13:30:36;;;;;;;10.77;7.20;;;;;;;;;;4917839;29;20191;-78
2022/01/11 13:33:02;;;;;;;11.97;6.43;;;;;;;;;;4914570;29;20210;-78
2022/01/11 13:35:27;;;;;;;10.53;6.60;;;;;;;;;;4913800;29;20178;-78
2022/01/11 13:37:52;;;;;;;13.47;10.80;;;;;;;;;;4909433;29;20175;-78
2022/01/11 13:40:19;;;;;;;11.30;8.00;;;;;;;;;;4906552;29;20206;-78
2022/01/11 13:42:46;;;;;;;10.57;7.27;;;;;;;;;;4914048;29;20174;-78
2022/01/11 13:45:12;;;;;;;9.63;6.70;;;;;;;;;;4912884;29;20183;-77
2022/01/11 13:47:37;;;;;;;8.33;5.93;;;;;;;;;;4912836;29;20175;-78
2022/01/11 13:50:04;;;;;;;8.10;6.17;;;;;;;;;;4909483;29;20179;-78
2022/01/11 13:52:29;;;;;;;5.93;4.77;;;;;;;;;;4919214;29;20574;-78
2022/01/11 13:54:55;;;;;;;7.38;5.47;;;;;;;;;;4915598;29;20207;-77
2022/01/11 13:57:26;;;;;;;5.40;4.13;;;;;;;;;;4906640;29;20186;-77
2022/01/11 13:59:57;;;;;;;7.30;5.67;;;;;;;;;;4912631;29;20183;-77
2022/01/11 14:02:25;;;;;;;5.77;3.80;;;;;;;;;;4914904;29;20206;-78
2022/01/11 14:04:55;;;;;;;6.93;4.90;;;;;;;;;;4903947;29;20171;-78
2022/01/11 14:07:24;;;;;;;6.47;3.60;;;;;;;;;;4901850;29;20182;-78
2022/01/11 14:10:02;;;;;;;6.10;4.90;;;;;;;;;;4906085;29;20239;-78
2022/01/11 14:12:30;;;;;;;8.50;5.17;;;;;;;;;;4903115;29;20179;-77
2022/01/11 14:14:55;;;;;;;6.67;4.57;;;;;;;;;;4909632;29;20183;-77
2022/01/11 14:17:21;;;;;;;11.97;5.30;;;;;;;;;;4925619;29;20183;-77
2022/01/11 14:19:47;;;;;;;5.83;4.37;;;;;;;;;;4917577;29;20205;-74
2022/01/11 14:22:13;;;;;;;6.07;4.53;;;;;;;;;;4929292;29;20273;-74
2022/01/11 14:24:50;;;;;;;5.53;3.30;;;;;;;;;;4911154;29;20183;-74